sensor_id;sensor_type;location;lat;lon;timestamp;P1;durP1;ratioP1;P2;durP2;ratioP2
22614;SDS011;11474;50.790;0.298;2023-01-28T00:00:07;14.52;;;4.43;;
22614;SDS011;11474;50.790;0.298;2023-01-28T00:02:34;17.40;;;4.45;;
22614;SDS011;11474;50.790;0.298;2023-01-28T00:05:00;15.65;;;4.70;;
22614;SDS011;11474;50.790;0.298;2023-01-28T00:07:26;15.73;;;4.40;;
22614;SDS011;11474;50.790;0.298;2023-01-28T00:09:52;14.93;;;4.25;;
22614;SDS011;11474;50.790;0.298;2023-01-28T00:12:18;14.48;;;4.07;;
22614;SDS011;11474;50.790;0.298;2023-01-28T00:14:44;20.42;;;4.15;;
22614;SDS011;11474;50.790;0.298;2023-01-28T00:17:12;15.55;;;4.45;;
22614;SDS011;11474;50.790;0.298;2023-01-28T00:19:39;16.50;;;4.35;;
22614;SDS011;11474;50.790;0.298;2023-01-28T00:22:05;13.77;;;4.15;;
22614;SDS011;11474;50.790;0.298;2023-01-28T00:24:31;13.43;;;3.83;;
22614;SDS011;11474;50.790;0.298;2023-01-28T00:26:57;13.55;;;4.15;;
22614;SDS011;11474;50.790;0.298;2023-01-28T00:29:23;15.90;;;4.78;;
22614;SDS011;11474;50.790;0.298;2023-01-28T00:31:49;12.25;;;4.10;;
22614;SDS011;11474;50.790;0.298;2023-01-28T00:34:15;16.60;;;4.57;;
22614;SDS011;11474;50.790;0.298;2023-01-28T00:36:41;14.57;;;4.38;;
22614;SDS011;11474;50.790;0.298;2023-01-28T00:39:10;11.80;;;4.90;;
22614;SDS011;11474;50.790;0.298;2023-01-28T00:41:38;14.23;;;4.68;;
22614;SDS011;11474;50.790;0.298;2023-01-28T00:44:04;20.95;;;4.90;;
22614;SDS011;11474;50.790;0.298;2023-01-28T00:46:30;16.73;;;4.90;;
22614;SDS011;11474;50.790;0.298;2023-01-28T00:48:56;16.27;;;4.50;;
22614;SDS011;11474;50.790;0.298;2023-01-28T00:51:22;19.30;;;5.30;;
22614;SDS011;11474;50.790;0.298;2023-01-28T00:53:48;14.52;;;4.47;;
22614;SDS011;11474;50.790;0.298;2023-01-28T00:56:15;18.58;;;4.75;;
22614;SDS011;11474;50.790;0.298;2023-01-28T00:58:42;22.65;;;5.00;;
22614;SDS011;11474;50.790;0.298;2023-01-28T01:01:12;13.57;;;4.60;;
22614;SDS011;11474;50.790;0.298;2023-01-28T01:03:39;19.70;;;5.05;;
22614;SDS011;11474;50.790;0.298;2023-01-28T01:06:05;19.48;;;5.85;;
22614;SDS011;11474;50.790;0.298;2023-01-28T01:08:31;16.02;;;5.25;;
22614;SDS011;11474;50.790;0.298;2023-01-28T01:11:04;19.45;;;5.10;;
22614;SDS011;11474;50.790;0.298;2023-01-28T01:13:30;16.45;;;5.05;;
22614;SDS011;11474;50.790;0.298;2023-01-28T01:16:06;21.15;;;5.38;;
22614;SDS011;11474;50.790;0.298;2023-01-28T01:18:32;16.30;;;4.80;;
22614;SDS011;11474;50.790;0.298;2023-01-28T01:20:59;18.50;;;4.80;;
22614;SDS011;11474;50.790;0.298;2023-01-28T01:23:25;15.40;;;4.43;;
22614;SDS011;11474;50.790;0.298;2023-01-28T01:25:51;12.13;;;4.60;;
22614;SDS011;11474;50.790;0.298;2023-01-28T01:28:17;12.15;;;4.20;;
22614;SDS011;11474;50.790;0.298;2023-01-28T01:30:45;16.15;;;4.57;;
22614;SDS011;11474;50.790;0.298;2023-01-28T01:33:11;12.23;;;4.30;;
22614;SDS011;11474;50.790;0.298;2023-01-28T01:35:37;16.23;;;4.95;;
22614;SDS011;11474;50.790;0.298;2023-01-28T01:38:03;18.33;;;4.80;;
22614;SDS011;11474;50.790;0.298;2023-01-28T01:40:29;16.95;;;4.80;;
22614;SDS011;11474;50.790;0.298;2023-01-28T01:42:56;14.73;;;4.67;;
22614;SDS011;11474;50.790;0.298;2023-01-28T01:45:22;18.02;;;4.60;;
22614;SDS011;11474;50.790;0.298;2023-01-28T01:47:52;19.83;;;4.72;;
22614;SDS011;11474;50.790;0.298;2023-01-28T01:52:49;16.85;;;4.93;;
22614;SDS011;11474;50.790;0.298;2023-01-28T01:55:17;16.50;;;4.73;;
22614;SDS011;11474;50.790;0.298;2023-01-28T01:57:45;14.05;;;4.50;;
22614;SDS011;11474;50.790;0.298;2023-01-28T02:00:12;14.13;;;4.68;;
22614;SDS011;11474;50.790;0.298;2023-01-28T02:02:40;19.13;;;5.05;;
22614;SDS011;11474;50.790;0.298;2023-01-28T02:05:08;16.83;;;5.18;;
22614;SDS011;11474;50.790;0.298;2023-01-28T02:07:34;15.48;;;4.88;;
22614;SDS011;11474;50.790;0.298;2023-01-28T02:10:01;12.80;;;4.75;;
22614;SDS011;11474;50.790;0.298;2023-01-28T02:12:29;21.45;;;4.97;;
22614;SDS011;11474;50.790;0.298;2023-01-28T02:14:59;20.93;;;4.60;;
22614;SDS011;11474;50.790;0.298;2023-01-28T02:17:27;15.70;;;4.93;;
22614;SDS011;11474;50.790;0.298;2023-01-28T02:19:53;16.25;;;5.13;;
22614;SDS011;11474;50.790;0.298;2023-01-28T02:30:41;15.18;;;5.03;;
22614;SDS011;11474;50.790;0.298;2023-01-28T02:33:10;15.35;;;5.07;;
22614;SDS011;11474;50.790;0.298;2023-01-28T02:35:40;18.05;;;5.50;;
22614;SDS011;11474;50.790;0.298;2023-01-28T02:38:11;17.17;;;5.20;;
22614;SDS011;11474;50.790;0.298;2023-01-28T02:40:41;13.75;;;4.72;;
22614;SDS011;11474;50.790;0.298;2023-01-28T02:43:45;14.20;;;4.90;;
22614;SDS011;11474;50.790;0.298;2023-01-28T02:48:56;17.88;;;5.50;;
22614;SDS011;11474;50.790;0.298;2023-01-28T02:54:10;15.35;;;5.47;;
22614;SDS011;11474;50.790;0.298;2023-01-28T03:02:08;15.68;;;5.38;;
22614;SDS011;11474;50.790;0.298;2023-01-28T03:04:40;17.67;;;5.18;;
22614;SDS011;11474;50.790;0.298;2023-01-28T03:07:09;20.27;;;5.55;;
22614;SDS011;11474;50.790;0.298;2023-01-28T03:09:37;13.98;;;5.18;;
22614;SDS011;11474;50.790;0.298;2023-01-28T03:12:05;16.02;;;4.75;;
22614;SDS011;11474;50.790;0.298;2023-01-28T03:14:51;20.45;;;4.97;;
22614;SDS011;11474;50.790;0.298;2023-01-28T03:17:43;14.75;;;4.93;;
22614;SDS011;11474;50.790;0.298;2023-01-28T03:20:38;12.60;;;4.78;;
22614;SDS011;11474;50.790;0.298;2023-01-28T03:23:27;14.32;;;4.70;;
22614;SDS011;11474;50.790;0.298;2023-01-28T03:26:12;18.98;;;4.80;;
22614;SDS011;11474;50.790;0.298;2023-01-28T03:29:00;17.53;;;5.17;;
22614;SDS011;11474;50.790;0.298;2023-01-28T03:31:47;13.38;;;4.03;;
22614;SDS011;11474;50.790;0.298;2023-01-28T03:34:32;12.13;;;4.30;;
22614;SDS011;11474;50.790;0.298;2023-01-28T03:37:17;13.50;;;4.63;;
22614;SDS011;11474;50.790;0.298;2023-01-28T03:39:43;13.65;;;4.22;;
22614;SDS011;11474;50.790;0.298;2023-01-28T03:42:10;16.52;;;4.85;;
22614;SDS011;11474;50.790;0.298;2023-01-28T03:44:37;14.80;;;4.35;;
22614;SDS011;11474;50.790;0.298;2023-01-28T03:47:23;13.88;;;4.47;;
22614;SDS011;11474;50.790;0.298;2023-01-28T03:49:50;15.57;;;4.55;;
22614;SDS011;11474;50.790;0.298;2023-01-28T03:52:17;13.97;;;4.47;;
22614;SDS011;11474;50.790;0.298;2023-01-28T03:54:45;20.73;;;4.93;;
22614;SDS011;11474;50.790;0.298;2023-01-28T03:57:24;19.85;;;4.70;;
22614;SDS011;11474;50.790;0.298;2023-01-28T03:59:50;18.23;;;4.53;;
22614;SDS011;11474;50.790;0.298;2023-01-28T04:02:17;16.67;;;4.50;;
22614;SDS011;11474;50.790;0.298;2023-01-28T04:04:43;16.25;;;4.80;;
22614;SDS011;11474;50.790;0.298;2023-01-28T04:07:10;15.77;;;4.60;;
22614;SDS011;11474;50.790;0.298;2023-01-28T04:09:38;15.82;;;4.60;;
22614;SDS011;11474;50.790;0.298;2023-01-28T04:12:04;16.38;;;4.88;;
22614;SDS011;11474;50.790;0.298;2023-01-28T04:14:30;14.75;;;5.68;;
22614;SDS011;11474;50.790;0.298;2023-01-28T04:16:57;15.70;;;4.90;;
22614;SDS011;11474;50.790;0.298;2023-01-28T04:19:23;18.27;;;5.25;;
22614;SDS011;11474;50.790;0.298;2023-01-28T04:21:49;18.67;;;5.75;;
22614;SDS011;11474;50.790;0.298;2023-01-28T04:24:19;20.23;;;6.25;;
22614;SDS011;11474;50.790;0.298;2023-01-28T04:26:45;18.90;;;6.70;;
22614;SDS011;11474;50.790;0.298;2023-01-28T04:29:11;19.42;;;6.10;;
22614;SDS011;11474;50.790;0.298;2023-01-28T04:31:38;16.55;;;6.25;;
22614;SDS011;11474;50.790;0.298;2023-01-28T04:34:04;19.02;;;6.55;;
22614;SDS011;11474;50.790;0.298;2023-01-28T04:36:30;18.58;;;5.90;;
22614;SDS011;11474;50.790;0.298;2023-01-28T04:38:56;17.45;;;6.15;;
22614;SDS011;11474;50.790;0.298;2023-01-28T04:41:22;15.48;;;5.63;;
22614;SDS011;11474;50.790;0.298;2023-01-28T04:43:48;19.38;;;6.03;;
22614;SDS011;11474;50.790;0.298;2023-01-28T04:46:14;18.13;;;6.00;;
22614;SDS011;11474;50.790;0.298;2023-01-28T04:48:41;15.75;;;5.68;;
22614;SDS011;11474;50.790;0.298;2023-01-28T04:51:07;19.02;;;6.60;;
22614;SDS011;11474;50.790;0.298;2023-01-28T04:53:33;18.60;;;5.87;;
22614;SDS011;11474;50.790;0.298;2023-01-28T04:55:59;18.00;;;6.85;;
22614;SDS011;11474;50.790;0.298;2023-01-28T04:58:25;16.38;;;6.50;;
22614;SDS011;11474;50.790;0.298;2023-01-28T05:00:54;21.55;;;6.25;;
22614;SDS011;11474;50.790;0.298;2023-01-28T05:03:21;13.05;;;5.85;;
22614;SDS011;11474;50.790;0.298;2023-01-28T05:05:47;19.38;;;6.90;;
22614;SDS011;11474;50.790;0.298;2023-01-28T05:08:13;19.33;;;6.32;;
22614;SDS011;11474;50.790;0.298;2023-01-28T05:10:39;16.83;;;6.22;;
22614;SDS011;11474;50.790;0.298;2023-01-28T05:13:05;16.48;;;6.30;;
22614;SDS011;11474;50.790;0.298;2023-01-28T05:15:32;19.77;;;6.32;;
22614;SDS011;11474;50.790;0.298;2023-01-28T05:17:58;18.42;;;6.30;;
22614;SDS011;11474;50.790;0.298;2023-01-28T05:20:24;17.90;;;5.97;;
22614;SDS011;11474;50.790;0.298;2023-01-28T05:22:50;17.60;;;6.05;;
22614;SDS011;11474;50.790;0.298;2023-01-28T05:25:16;19.58;;;5.80;;
22614;SDS011;11474;50.790;0.298;2023-01-28T05:27:42;18.70;;;6.05;;
22614;SDS011;11474;50.790;0.298;2023-01-28T05:30:09;18.67;;;5.38;;
22614;SDS011;11474;50.790;0.298;2023-01-28T05:32:35;16.63;;;5.70;;
22614;SDS011;11474;50.790;0.298;2023-01-28T05:35:01;16.60;;;5.65;;
22614;SDS011;11474;50.790;0.298;2023-01-28T05:37:27;15.27;;;4.72;;
22614;SDS011;11474;50.790;0.298;2023-01-28T05:39:53;11.77;;;4.50;;
22614;SDS011;11474;50.790;0.298;2023-01-28T05:42:19;12.68;;;4.20;;
22614;SDS011;11474;50.790;0.298;2023-01-28T05:44:46;14.85;;;4.28;;
22614;SDS011;11474;50.790;0.298;2023-01-28T05:47:12;13.65;;;3.92;;
22614;SDS011;11474;50.790;0.298;2023-01-28T05:49:38;15.20;;;3.60;;
22614;SDS011;11474;50.790;0.298;2023-01-28T05:52:04;14.10;;;4.03;;
22614;SDS011;11474;50.790;0.298;2023-01-28T05:54:30;14.57;;;4.05;;
22614;SDS011;11474;50.790;0.298;2023-01-28T05:56:56;12.80;;;4.40;;
22614;SDS011;11474;50.790;0.298;2023-01-28T05:59:22;11.88;;;4.07;;
22614;SDS011;11474;50.790;0.298;2023-01-28T06:01:48;11.90;;;4.22;;
22614;SDS011;11474;50.790;0.298;2023-01-28T06:04:14;16.00;;;3.85;;
22614;SDS011;11474;50.790;0.298;2023-01-28T06:06:43;11.35;;;3.83;;
22614;SDS011;11474;50.790;0.298;2023-01-28T06:09:09;18.52;;;4.72;;
22614;SDS011;11474;50.790;0.298;2023-01-28T06:11:35;18.92;;;4.30;;
22614;SDS011;11474;50.790;0.298;2023-01-28T06:14:01;17.43;;;4.77;;
22614;SDS011;11474;50.790;0.298;2023-01-28T06:16:27;15.20;;;4.63;;
22614;SDS011;11474;50.790;0.298;2023-01-28T06:18:53;13.60;;;4.85;;
22614;SDS011;11474;50.790;0.298;2023-01-28T06:21:19;15.55;;;5.25;;
22614;SDS011;11474;50.790;0.298;2023-01-28T06:23:45;15.60;;;5.43;;
22614;SDS011;11474;50.790;0.298;2023-01-28T06:26:11;16.77;;;5.63;;
22614;SDS011;11474;50.790;0.298;2023-01-28T06:28:37;16.38;;;5.55;;
22614;SDS011;11474;50.790;0.298;2023-01-28T06:31:03;16.85;;;5.78;;
22614;SDS011;11474;50.790;0.298;2023-01-28T06:33:29;17.52;;;5.50;;
22614;SDS011;11474;50.790;0.298;2023-01-28T06:35:55;16.88;;;5.70;;
22614;SDS011;11474;50.790;0.298;2023-01-28T06:38:21;16.48;;;5.82;;
22614;SDS011;11474;50.790;0.298;2023-01-28T06:40:51;16.08;;;6.22;;
22614;SDS011;11474;50.790;0.298;2023-01-28T06:43:19;18.70;;;6.13;;
22614;SDS011;11474;50.790;0.298;2023-01-28T06:45:45;18.20;;;6.47;;
22614;SDS011;11474;50.790;0.298;2023-01-28T06:48:12;18.25;;;6.47;;
22614;SDS011;11474;50.790;0.298;2023-01-28T06:50:38;15.30;;;5.82;;
22614;SDS011;11474;50.790;0.298;2023-01-28T06:53:04;16.77;;;5.63;;
22614;SDS011;11474;50.790;0.298;2023-01-28T06:55:30;15.70;;;5.55;;
22614;SDS011;11474;50.790;0.298;2023-01-28T06:57:56;20.08;;;5.75;;
22614;SDS011;11474;50.790;0.298;2023-01-28T07:00:22;18.23;;;6.50;;
22614;SDS011;11474;50.790;0.298;2023-01-28T07:02:48;18.05;;;6.57;;
22614;SDS011;11474;50.790;0.298;2023-01-28T07:05:14;15.65;;;6.28;;
22614;SDS011;11474;50.790;0.298;2023-01-28T07:07:40;19.30;;;6.45;;
22614;SDS011;11474;50.790;0.298;2023-01-28T07:10:06;21.00;;;7.27;;
22614;SDS011;11474;50.790;0.298;2023-01-28T07:12:33;21.85;;;7.05;;
22614;SDS011;11474;50.790;0.298;2023-01-28T07:14:59;15.73;;;6.55;;
22614;SDS011;11474;50.790;0.298;2023-01-28T07:17:25;19.02;;;7.05;;
22614;SDS011;11474;50.790;0.298;2023-01-28T07:19:51;16.65;;;6.22;;
22614;SDS011;11474;50.790;0.298;2023-01-28T07:22:17;20.63;;;7.15;;
22614;SDS011;11474;50.790;0.298;2023-01-28T07:24:43;21.67;;;7.43;;
22614;SDS011;11474;50.790;0.298;2023-01-28T07:27:09;14.60;;;6.95;;
22614;SDS011;11474;50.790;0.298;2023-01-28T07:29:35;20.20;;;7.65;;
22614;SDS011;11474;50.790;0.298;2023-01-28T07:32:01;16.30;;;7.25;;
22614;SDS011;11474;50.790;0.298;2023-01-28T07:34:28;18.20;;;7.07;;
22614;SDS011;11474;50.790;0.298;2023-01-28T07:36:54;16.85;;;6.85;;
22614;SDS011;11474;50.790;0.298;2023-01-28T07:39:21;14.55;;;6.53;;
22614;SDS011;11474;50.790;0.298;2023-01-28T07:41:47;14.57;;;6.40;;
22614;SDS011;11474;50.790;0.298;2023-01-28T07:44:13;16.97;;;6.03;;
22614;SDS011;11474;50.790;0.298;2023-01-28T07:46:39;17.50;;;6.05;;
22614;SDS011;11474;50.790;0.298;2023-01-28T07:49:05;14.93;;;6.03;;
22614;SDS011;11474;50.790;0.298;2023-01-28T07:51:31;17.52;;;5.63;;
22614;SDS011;11474;50.790;0.298;2023-01-28T07:53:57;15.10;;;5.50;;
22614;SDS011;11474;50.790;0.298;2023-01-28T07:56:23;16.08;;;6.03;;
22614;SDS011;11474;50.790;0.298;2023-01-28T07:58:51;17.48;;;5.30;;
22614;SDS011;11474;50.790;0.298;2023-01-28T08:01:17;12.27;;;5.03;;
22614;SDS011;11474;50.790;0.298;2023-01-28T08:03:43;14.50;;;5.57;;
22614;SDS011;11474;50.790;0.298;2023-01-28T08:06:09;16.45;;;5.28;;
22614;SDS011;11474;50.790;0.298;2023-01-28T08:08:36;18.90;;;5.45;;
22614;SDS011;11474;50.790;0.298;2023-01-28T08:11:05;13.27;;;4.85;;
22614;SDS011;11474;50.790;0.298;2023-01-28T08:13:33;10.77;;;4.35;;
22614;SDS011;11474;50.790;0.298;2023-01-28T08:15:59;13.20;;;4.60;;
22614;SDS011;11474;50.790;0.298;2023-01-28T08:18:25;11.32;;;4.28;;
22614;SDS011;11474;50.790;0.298;2023-01-28T08:20:55;13.43;;;4.35;;
22614;SDS011;11474;50.790;0.298;2023-01-28T08:23:22;15.73;;;4.82;;
22614;SDS011;11474;50.790;0.298;2023-01-28T08:25:48;12.05;;;4.30;;
22614;SDS011;11474;50.790;0.298;2023-01-28T08:28:15;14.38;;;4.47;;
22614;SDS011;11474;50.790;0.298;2023-01-28T08:30:41;17.35;;;5.00;;
22614;SDS011;11474;50.790;0.298;2023-01-28T08:33:08;16.65;;;5.30;;
22614;SDS011;11474;50.790;0.298;2023-01-28T08:35:35;14.97;;;4.73;;
22614;SDS011;11474;50.790;0.298;2023-01-28T08:38:01;13.95;;;4.57;;
22614;SDS011;11474;50.790;0.298;2023-01-28T08:40:28;12.57;;;4.32;;
22614;SDS011;11474;50.790;0.298;2023-01-28T08:42:54;11.05;;;4.05;;
22614;SDS011;11474;50.790;0.298;2023-01-28T08:45:21;8.40;;;4.10;;
22614;SDS011;11474;50.790;0.298;2023-01-28T08:47:59;11.40;;;4.38;;
22614;SDS011;11474;50.790;0.298;2023-01-28T08:50:27;12.50;;;3.97;;
22614;SDS011;11474;50.790;0.298;2023-01-28T08:52:57;10.23;;;4.97;;
22614;SDS011;11474;50.790;0.298;2023-01-28T08:55:23;12.43;;;4.32;;
22614;SDS011;11474;50.790;0.298;2023-01-28T08:57:49;12.65;;;4.80;;
22614;SDS011;11474;50.790;0.298;2023-01-28T09:00:15;13.27;;;5.10;;
22614;SDS011;11474;50.790;0.298;2023-01-28T09:02:41;13.80;;;4.50;;
22614;SDS011;11474;50.790;0.298;2023-01-28T09:05:08;14.20;;;4.38;;
22614;SDS011;11474;50.790;0.298;2023-01-28T09:07:35;8.82;;;3.53;;
22614;SDS011;11474;50.790;0.298;2023-01-28T09:10:01;10.63;;;3.33;;
22614;SDS011;11474;50.790;0.298;2023-01-28T09:12:28;11.20;;;3.13;;
22614;SDS011;11474;50.790;0.298;2023-01-28T09:14:54;12.60;;;3.22;;
22614;SDS011;11474;50.790;0.298;2023-01-28T09:17:20;10.85;;;2.92;;
22614;SDS011;11474;50.790;0.298;2023-01-28T09:19:46;6.70;;;2.60;;
22614;SDS011;11474;50.790;0.298;2023-01-28T09:22:12;8.23;;;2.53;;
22614;SDS011;11474;50.790;0.298;2023-01-28T09:24:38;11.13;;;2.85;;
22614;SDS011;11474;50.790;0.298;2023-01-28T09:27:04;10.30;;;2.78;;
22614;SDS011;11474;50.790;0.298;2023-01-28T09:29:32;10.30;;;2.53;;
22614;SDS011;11474;50.790;0.298;2023-01-28T09:31:58;8.98;;;2.38;;
22614;SDS011;11474;50.790;0.298;2023-01-28T09:34:24;9.50;;;2.20;;
22614;SDS011;11474;50.790;0.298;2023-01-28T09:36:50;10.40;;;2.38;;
22614;SDS011;11474;50.790;0.298;2023-01-28T09:39:16;6.50;;;2.00;;
22614;SDS011;11474;50.790;0.298;2023-01-28T09:41:59;6.10;;;1.90;;
22614;SDS011;11474;50.790;0.298;2023-01-28T09:47:31;4.22;;;1.50;;
22614;SDS011;11474;50.790;0.298;2023-01-28T09:49:59;5.10;;;1.65;;
22614;SDS011;11474;50.790;0.298;2023-01-28T09:52:27;4.30;;;1.40;;
22614;SDS011;11474;50.790;0.298;2023-01-28T09:55:16;4.85;;;1.60;;
22614;SDS011;11474;50.790;0.298;2023-01-28T09:57:50;5.95;;;2.10;;
22614;SDS011;11474;50.790;0.298;2023-01-28T10:00:18;8.35;;;1.90;;
22614;SDS011;11474;50.790;0.298;2023-01-28T10:02:59;4.22;;;1.73;;
22614;SDS011;11474;50.790;0.298;2023-01-28T10:08:10;9.32;;;2.17;;
22614;SDS011;11474;50.790;0.298;2023-01-28T10:10:43;9.93;;;3.47;;
22614;SDS011;11474;50.790;0.298;2023-01-28T10:18:12;8.88;;;2.60;;
22614;SDS011;11474;50.790;0.298;2023-01-28T10:20:48;9.45;;;2.40;;
22614;SDS011;11474;50.790;0.298;2023-01-28T10:25:42;8.15;;;3.00;;
22614;SDS011;11474;50.790;0.298;2023-01-28T10:28:13;9.88;;;2.88;;
22614;SDS011;11474;50.790;0.298;2023-01-28T10:30:39;10.13;;;3.03;;
22614;SDS011;11474;50.790;0.298;2023-01-28T10:35:52;10.40;;;2.53;;
22614;SDS011;11474;50.790;0.298;2023-01-28T10:38:19;8.45;;;2.97;;
22614;SDS011;11474;50.790;0.298;2023-01-28T10:40:45;7.07;;;2.45;;
22614;SDS011;11474;50.790;0.298;2023-01-28T10:43:13;8.10;;;2.88;;
22614;SDS011;11474;50.790;0.298;2023-01-28T10:45:46;6.97;;;2.42;;
22614;SDS011;11474;50.790;0.298;2023-01-28T10:48:21;7.95;;;2.42;;
22614;SDS011;11474;50.790;0.298;2023-01-28T10:50:48;12.30;;;2.97;;
22614;SDS011;11474;50.790;0.298;2023-01-28T10:53:15;7.90;;;2.80;;
22614;SDS011;11474;50.790;0.298;2023-01-28T10:58:13;8.55;;;2.85;;
22614;SDS011;11474;50.790;0.298;2023-01-28T11:00:42;9.63;;;2.72;;
22614;SDS011;11474;50.790;0.298;2023-01-28T11:03:15;9.00;;;2.67;;
22614;SDS011;11474;50.790;0.298;2023-01-28T11:05:48;6.85;;;2.30;;
22614;SDS011;11474;50.790;0.298;2023-01-28T11:08:15;6.35;;;2.00;;
22614;SDS011;11474;50.790;0.298;2023-01-28T11:10:42;6.70;;;2.30;;
22614;SDS011;11474;50.790;0.298;2023-01-28T11:13:16;6.55;;;2.00;;
22614;SDS011;11474;50.790;0.298;2023-01-28T11:15:48;7.45;;;2.33;;
22614;SDS011;11474;50.790;0.298;2023-01-28T11:18:25;10.45;;;2.10;;
22614;SDS011;11474;50.790;0.298;2023-01-28T11:21:02;4.38;;;1.55;;
22614;SDS011;11474;50.790;0.298;2023-01-28T11:23:30;5.28;;;1.70;;
22614;SDS011;11474;50.790;0.298;2023-01-28T11:26:20;3.90;;;1.50;;
22614;SDS011;11474;50.790;0.298;2023-01-28T11:28:44;4.88;;;1.75;;
22614;SDS011;11474;50.790;0.298;2023-01-28T11:31:12;9.73;;;1.80;;
22614;SDS011;11474;50.790;0.298;2023-01-28T11:38:52;6.90;;;1.83;;
22614;SDS011;11474;50.790;0.298;2023-01-28T11:41:22;5.43;;;1.75;;
22614;SDS011;11474;50.790;0.298;2023-01-28T11:43:50;8.10;;;2.00;;
22614;SDS011;11474;50.790;0.298;2023-01-28T11:51:38;3.80;;;1.42;;
22614;SDS011;11474;50.790;0.298;2023-01-28T12:01:48;7.25;;;1.63;;
22614;SDS011;11474;50.790;0.298;2023-01-28T12:06:44;6.30;;;2.03;;
22614;SDS011;11474;50.790;0.298;2023-01-28T12:09:29;5.47;;;1.60;;
22614;SDS011;11474;50.790;0.298;2023-01-28T12:14:59;7.97;;;1.63;;
22614;SDS011;11474;50.790;0.298;2023-01-28T12:28:06;3.97;;;1.50;;
22614;SDS011;11474;50.790;0.298;2023-01-28T12:30:47;6.22;;;1.80;;
22614;SDS011;11474;50.790;0.298;2023-01-28T12:35:51;3.67;;;1.60;;
22614;SDS011;11474;50.790;0.298;2023-01-28T12:38:30;4.80;;;1.55;;
22614;SDS011;11474;50.790;0.298;2023-01-28T12:41:06;4.68;;;1.60;;
22614;SDS011;11474;50.790;0.298;2023-01-28T12:46:08;3.95;;;1.80;;
22614;SDS011;11474;50.790;0.298;2023-01-28T12:48:37;5.00;;;1.67;;
22614;SDS011;11474;50.790;0.298;2023-01-28T12:51:14;5.07;;;1.73;;
22614;SDS011;11474;50.790;0.298;2023-01-28T12:56:24;5.80;;;1.88;;
22614;SDS011;11474;50.790;0.298;2023-01-28T12:58:56;7.85;;;2.08;;
22614;SDS011;11474;50.790;0.298;2023-01-28T13:01:26;6.75;;;2.00;;
22614;SDS011;11474;50.790;0.298;2023-01-28T13:04:03;4.88;;;1.77;;
22614;SDS011;11474;50.790;0.298;2023-01-28T13:06:32;7.13;;;2.00;;
22614;SDS011;11474;50.790;0.298;2023-01-28T13:09:23;5.30;;;2.10;;
22614;SDS011;11474;50.790;0.298;2023-01-28T13:11:47;3.33;;;1.67;;
22614;SDS011;11474;50.790;0.298;2023-01-28T13:14:14;5.15;;;1.90;;
22614;SDS011;11474;50.790;0.298;2023-01-28T13:16:40;10.32;;;1.90;;
22614;SDS011;11474;50.790;0.298;2023-01-28T13:19:08;9.05;;;2.20;;
22614;SDS011;11474;50.790;0.298;2023-01-28T13:21:45;6.25;;;2.28;;
22614;SDS011;11474;50.790;0.298;2023-01-28T13:31:39;5.35;;;2.22;;
22614;SDS011;11474;50.790;0.298;2023-01-28T13:34:06;5.40;;;1.92;;
22614;SDS011;11474;50.790;0.298;2023-01-28T13:36:51;6.07;;;2.00;;
22614;SDS011;11474;50.790;0.298;2023-01-28T13:39:21;12.38;;;2.80;;
22614;SDS011;11474;50.790;0.298;2023-01-28T13:41:50;7.20;;;1.73;;
22614;SDS011;11474;50.790;0.298;2023-01-28T13:46:43;7.88;;;2.10;;
22614;SDS011;11474;50.790;0.298;2023-01-28T13:49:11;6.20;;;1.80;;
22614;SDS011;11474;50.790;0.298;2023-01-28T13:51:38;4.63;;;2.10;;
22614;SDS011;11474;50.790;0.298;2023-01-28T13:54:14;5.97;;;1.98;;
22614;SDS011;11474;50.790;0.298;2023-01-28T14:01:50;8.02;;;2.40;;
22614;SDS011;11474;50.790;0.298;2023-01-28T14:20:00;5.68;;;1.77;;
22614;SDS011;11474;50.790;0.298;2023-01-28T14:22:28;5.82;;;1.92;;
22614;SDS011;11474;50.790;0.298;2023-01-28T14:24:55;3.38;;;1.77;;
22614;SDS011;11474;50.790;0.298;2023-01-28T14:27:31;4.65;;;1.90;;
22614;SDS011;11474;50.790;0.298;2023-01-28T14:32:45;5.50;;;2.25;;
22614;SDS011;11474;50.790;0.298;2023-01-28T14:35:14;6.18;;;2.30;;
22614;SDS011;11474;50.790;0.298;2023-01-28T14:37:41;7.35;;;2.38;;
22614;SDS011;11474;50.790;0.298;2023-01-28T14:40:10;6.05;;;2.33;;
22614;SDS011;11474;50.790;0.298;2023-01-28T14:42:40;6.95;;;2.65;;
22614;SDS011;11474;50.790;0.298;2023-01-28T14:50:29;5.50;;;2.38;;
22614;SDS011;11474;50.790;0.298;2023-01-28T14:53:41;7.15;;;2.50;;
22614;SDS011;11474;50.790;0.298;2023-01-28T14:58:36;6.60;;;2.65;;
22614;SDS011;11474;50.790;0.298;2023-01-28T15:01:03;5.68;;;2.30;;
22614;SDS011;11474;50.790;0.298;2023-01-28T15:03:30;7.72;;;2.40;;
22614;SDS011;11474;50.790;0.298;2023-01-28T15:06:16;9.00;;;2.72;;
22614;SDS011;11474;50.790;0.298;2023-01-28T15:08:42;7.10;;;2.58;;
22614;SDS011;11474;50.790;0.298;2023-01-28T15:11:10;5.70;;;2.38;;
22614;SDS011;11474;50.790;0.298;2023-01-28T15:13:39;3.90;;;2.45;;
22614;SDS011;11474;50.790;0.298;2023-01-28T15:16:06;6.90;;;2.33;;
22614;SDS011;11474;50.790;0.298;2023-01-28T15:18:36;5.10;;;2.45;;
22614;SDS011;11474;50.790;0.298;2023-01-28T15:21:05;7.07;;;2.70;;
22614;SDS011;11474;50.790;0.298;2023-01-28T15:23:32;4.63;;;2.40;;
22614;SDS011;11474;50.790;0.298;2023-01-28T15:25:59;7.45;;;2.60;;
22614;SDS011;11474;50.790;0.298;2023-01-28T15:28:30;4.38;;;2.50;;
22614;SDS011;11474;50.790;0.298;2023-01-28T15:30:57;6.43;;;2.60;;
22614;SDS011;11474;50.790;0.298;2023-01-28T15:33:23;6.60;;;2.53;;
22614;SDS011;11474;50.790;0.298;2023-01-28T15:35:53;8.13;;;2.80;;
22614;SDS011;11474;50.790;0.298;2023-01-28T15:38:20;5.10;;;2.72;;
22614;SDS011;11474;50.790;0.298;2023-01-28T15:40:48;9.18;;;2.92;;
22614;SDS011;11474;50.790;0.298;2023-01-28T15:43:18;7.27;;;3.00;;
22614;SDS011;11474;50.790;0.298;2023-01-28T15:45:46;6.15;;;2.80;;
22614;SDS011;11474;50.790;0.298;2023-01-28T15:48:12;9.05;;;2.90;;
22614;SDS011;11474;50.790;0.298;2023-01-28T15:50:39;8.88;;;3.20;;
22614;SDS011;11474;50.790;0.298;2023-01-28T15:53:08;8.27;;;3.05;;
22614;SDS011;11474;50.790;0.298;2023-01-28T15:55:44;6.75;;;2.90;;
22614;SDS011;11474;50.790;0.298;2023-01-28T16:00:36;5.35;;;3.08;;
22614;SDS011;11474;50.790;0.298;2023-01-28T16:03:06;9.32;;;3.47;;
22614;SDS011;11474;50.790;0.298;2023-01-28T16:05:37;7.32;;;3.10;;
22614;SDS011;11474;50.790;0.298;2023-01-28T16:08:10;8.18;;;3.28;;
22614;SDS011;11474;50.790;0.298;2023-01-28T16:10:37;8.55;;;3.30;;
22614;SDS011;11474;50.790;0.298;2023-01-28T16:15:35;7.78;;;3.65;;
22614;SDS011;11474;50.790;0.298;2023-01-28T16:18:03;7.90;;;3.50;;
22614;SDS011;11474;50.790;0.298;2023-01-28T16:20:30;8.90;;;4.30;;
22614;SDS011;11474;50.790;0.298;2023-01-28T16:23:00;8.00;;;3.90;;
22614;SDS011;11474;50.790;0.298;2023-01-28T16:25:30;10.07;;;3.80;;
22614;SDS011;11474;50.790;0.298;2023-01-28T16:27:57;9.82;;;4.20;;
22614;SDS011;11474;50.790;0.298;2023-01-28T16:30:24;10.73;;;4.70;;
22614;SDS011;11474;50.790;0.298;2023-01-28T16:32:50;11.13;;;4.50;;
22614;SDS011;11474;50.790;0.298;2023-01-28T16:35:17;9.70;;;4.90;;
22614;SDS011;11474;50.790;0.298;2023-01-28T16:37:44;8.20;;;4.55;;
22614;SDS011;11474;50.790;0.298;2023-01-28T16:40:11;11.73;;;5.20;;
22614;SDS011;11474;50.790;0.298;2023-01-28T16:42:38;12.98;;;5.18;;
22614;SDS011;11474;50.790;0.298;2023-01-28T16:45:04;9.75;;;4.90;;
22614;SDS011;11474;50.790;0.298;2023-01-28T16:47:30;10.77;;;4.88;;
22614;SDS011;11474;50.790;0.298;2023-01-28T16:49:56;8.73;;;4.72;;
22614;SDS011;11474;50.790;0.298;2023-01-28T16:52:22;13.50;;;5.80;;
22614;SDS011;11474;50.790;0.298;2023-01-28T16:54:49;12.80;;;5.13;;